Terminal Aerodrome Forecast
Issued by NWS Grand Forks, ND

Home | Current Version | Previous Version | Graphics & Text | Print | Product List | Glossary On
Versions: 1 2 3 4 5 6 7 8 9 10 11 12 13 14 15
000
FTUS43 KFGF 211100
TAFGFK
TAF
KGFK 211121Z 2112/2212 07008KT P6SM SCT250
     FM220000 06008KT P6SM TSRA BKN050CB
     FM220700 36011KT P6SM BKN025=

USA.gov is the U.S. government's official web portal to all federal, state and local government web resources and services.